Time;durP1;ratioP1;P1;durP2;ratioP2;P2;SDS_P1;SDS_P2;PMS_P1;PMS_P2;Temp;Humidity;BMP_temperature;BMP_pressure;BME280_temperature;BME280_humidity;BME280_pressure;Samples;Min_cycle;Max_cycle;Signal;HPM_P1;HPM_P2
2023/04/19 00:02:42;;;;;;;10.60;4.03;;;;;;;16.73;nan;100553.78;4863245;29;20482;-92
2023/04/19 00:05:41;;;;;;;12.93;2.70;;;;;;;16.78;nan;100560.22;4812621;29;20440;-92
2023/04/19 00:08:21;;;;;;;15.63;2.83;;;;;;;16.72;nan;100549.34;4846047;29;20467;-92
2023/04/19 00:11:01;;;;;;;14.03;2.63;;;;;;;16.70;nan;100557.00;4826856;29;20939;-92
2023/04/19 00:13:36;;;;;;;17.83;3.80;;;;;;;16.68;nan;100559.16;4812440;29;20487;-92
2023/04/19 00:16:08;;;;;;;10.67;3.33;;;;;;;16.65;nan;100565.16;4827666;29;20452;-92
2023/04/19 00:18:51;;;;;;;14.03;4.20;;;;;;;16.61;nan;100563.91;4820399;29;20482;-92
2023/04/19 00:24:34;;;;;;;12.03;3.00;;;;;;;16.63;nan;100584.69;4799521;29;2136616;-92
2023/04/19 00:27:09;;;;;;;16.63;4.17;;;;;;;16.53;nan;100563.19;4831841;29;20359;-91
2023/04/19 00:29:37;;;;;;;12.40;3.57;;;;;;;16.56;nan;100572.88;4831982;29;20485;-89
2023/04/19 00:32:27;;;;;;;13.43;3.47;;;;;;;16.58;nan;100570.75;4821965;29;20511;-91
2023/04/19 00:35:23;;;;;;;23.10;3.33;;;;;;;16.56;nan;100565.47;4832029;29;20550;-91
2023/04/19 00:37:53;;;;;;;11.80;3.50;;;;;;;16.54;nan;100558.53;4851422;29;20563;-91
2023/04/19 00:40:22;;;;;;;13.97;3.37;;;;;;;16.56;nan;100570.97;4832116;29;20459;-91
2023/04/19 00:42:56;;;;;;;10.70;3.10;;;;;;;16.53;nan;100567.88;4850460;29;20446;-91
2023/04/19 00:45:27;;;;;;;14.90;3.40;;;;;;;16.53;nan;100565.13;4835285;29;20499;-91
2023/04/19 00:48:22;;;;;;;8.17;3.27;;;;;;;16.52;nan;100569.78;4849325;29;20486;-92
2023/04/19 00:50:57;;;;;;;16.93;2.90;;;;;;;16.44;nan;100567.38;4864303;29;20870;-91
2023/04/19 00:53:38;;;;;;;17.10;2.90;;;;;;;16.37;nan;100557.50;4849373;29;20458;-91
2023/04/19 00:56:08;;;;;;;9.37;3.03;;;;;;;16.36;nan;100569.59;4852936;29;20992;-90
2023/04/19 00:58:43;;;;;;;7.03;2.70;;;;;;;16.22;nan;100555.19;4831318;29;20456;-91
2023/04/19 01:01:28;;;;;;;14.40;2.60;;;;;;;16.26;nan;100564.69;4827635;29;20985;-91
2023/04/19 01:03:57;;;;;;;8.90;2.23;;;;;;;16.22;nan;100569.81;4813257;29;20552;-91
2023/04/19 01:06:38;;;;;;;11.47;2.30;;;;;;;16.08;96.51;100560.06;5070074;27;20538;-92
2023/04/19 01:09:05;;;;;;;12.10;2.93;;;;;;;16.03;96.78;100564.59;5034203;28;20478;-91
2023/04/19 01:11:35;;;;;;;11.37;2.60;;;;;;;15.97;96.35;100558.09;5018166;28;20474;-92
2023/04/19 01:14:10;;;;;;;11.43;3.00;;;;;;;15.88;96.29;100542.97;5013726;28;20447;-92
2023/04/19 01:16:49;;;;;;;13.87;2.70;;;;;;;15.97;96.55;100558.09;5033472;28;20948;-93
2023/04/19 01:19:17;;;;;;;7.47;2.80;;;;;;;15.88;96.25;100542.97;5050190;28;20439;-92
2023/04/19 01:22:03;;;;;;;7.03;2.73;;;;;;;15.89;96.31;100561.19;5034414;28;20439;-91
2023/04/19 01:24:38;;;;;;;10.60;2.93;;;;;;;15.74;95.59;100542.34;5030503;28;20524;-92
2023/04/19 01:30:39;;;;;;;5.80;1.93;;;;;;;15.75;95.61;100563.31;5051105;28;20437;-92
2023/04/19 01:33:17;;;;;;;9.47;2.40;;;;;;;15.71;95.30;100559.31;5050271;28;20471;-91
2023/04/19 01:36:02;;;;;;;8.70;3.10;;;;;;;15.65;94.97;100559.41;5049966;28;20451;-92
2023/04/19 01:38:51;;;;;;;7.17;2.13;;;;;;;15.64;95.33;100557.72;5033547;28;20454;-91
2023/04/19 01:41:29;;;;;;;9.00;2.33;;;;;;;15.52;95.44;100543.84;5049665;28;20447;-92
2023/04/19 01:44:10;;;;;;;10.03;3.13;;;;;;;15.59;95.92;100547.38;5016925;28;20545;-92
2023/04/19 01:46:38;;;;;;;12.80;3.27;;;;;;;15.55;95.79;100543.41;5049391;28;20498;-92
2023/04/19 01:49:17;;;;;;;10.13;2.97;;;;;;;15.49;95.23;100545.16;5017489;28;20492;-91
2023/04/19 01:52:15;;;;;;;14.90;2.93;;;;;;;15.41;94.55;100542.69;5016874;28;20485;-92
2023/04/19 01:55:12;;;;;;;14.53;2.70;;;;;;;15.34;94.86;100541.13;5049365;28;20442;-91
2023/04/19 01:58:27;;;;;;;14.30;2.83;;;;;;;15.26;94.38;100544.16;5050023;28;20423;-92
2023/04/19 02:01:00;;;;;;;2.87;1.80;;;;;;;15.19;94.31;100545.09;5063045;28;20455;-92
2023/04/19 02:03:42;;;;;;;8.27;1.97;;;;;;;15.07;94.10;100535.91;5029971;28;21007;-92
2023/04/19 02:06:13;;;;;;;10.20;2.57;;;;;;;15.07;93.81;100541.41;5025634;28;20486;-92
2023/04/19 02:08:57;;;;;;;6.73;2.20;;;;;;;15.08;93.71;100542.25;5016449;28;21006;-92
2023/04/19 02:11:36;;;;;;;9.90;2.83;;;;;;;15.02;93.68;100543.16;5049621;28;20455;-92
2023/04/19 02:14:32;;;;;;;6.70;2.37;;;;;;;14.98;93.65;100541.94;5048786;28;20477;-92
2023/04/19 02:17:12;;;;;;;8.50;2.30;;;;;;;14.90;93.80;100542.22;5024155;28;20856;-92
2023/04/19 02:23:27;;;;;;;9.13;2.60;;;;;;;14.83;94.76;100539.53;5036781;28;20462;-92
2023/04/19 02:26:29;;;;;;;9.10;3.00;;;;;;;14.79;94.08;100539.19;5002703;28;20489;-94
2023/04/19 02:29:06;;;;;;;5.97;2.30;;;;;;;14.76;94.11;100549.78;5035219;28;20473;-91
2023/04/19 02:31:45;;;;;;;6.13;1.70;;;;;;;14.62;93.59;100538.06;5035729;28;20820;-92
2023/04/19 02:34:15;;;;;;;4.73;2.07;;;;;;;14.58;93.45;100536.00;5003513;28;20497;-92
2023/04/19 02:36:51;;;;;;;6.60;2.40;;;;;;;14.52;93.48;100544.06;5003605;28;20432;-92
2023/04/19 02:39:25;;;;;;;15.07;2.57;;;;;;;14.48;93.80;100534.56;5002948;28;20462;-91
2023/04/19 02:42:01;;;;;;;5.60;2.37;;;;;;;14.48;93.69;100542.81;5002816;28;20497;-92
2023/04/19 02:44:56;;;;;;;13.93;2.63;;;;;;;14.52;93.67;100555.06;5018583;28;20454;-92
2023/04/19 02:47:39;;;;;;;12.00;2.30;;;;;;;14.51;93.94;100558.88;5035304;28;20454;-91
2023/04/19 02:50:30;;;;;;;6.80;2.50;;;;;;;14.48;93.90;100562.06;5034557;28;20451;-92
2023/04/19 02:53:08;;;;;;;11.17;2.50;;;;;;;14.44;93.58;100560.81;5018882;28;20479;-92
2023/04/19 02:55:49;;;;;;;5.00;2.30;;;;;;;14.43;93.21;100559.13;5023822;28;20482;-92
2023/04/19 02:58:25;;;;;;;4.47;1.60;;;;;;;14.39;93.14;100557.06;4998927;28;20546;-91
2023/04/19 03:01:05;;;;;;;9.70;2.40;;;;;;;14.40;92.41;100562.38;5000073;28;20479;-92
2023/04/19 03:03:35;;;;;;;11.17;1.80;;;;;;;14.29;92.37;100554.78;5018516;28;20522;-92
2023/04/19 03:06:03;;;;;;;6.67;2.77;;;;;;;14.31;92.75;100558.16;5002059;28;20479;-91
2023/04/19 03:08:36;;;;;;;7.50;2.50;;;;;;;14.22;92.43;100556.75;5018699;28;20432;-92
2023/04/19 03:11:26;;;;;;;5.67;2.20;;;;;;;14.25;92.51;100564.53;5003503;28;20465;-91
2023/04/19 03:14:15;;;;;;;7.67;2.27;;;;;;;14.24;92.72;100562.84;5018759;28;20459;-92
2023/04/19 03:16:54;;;;;;;7.50;2.20;;;;;;;14.26;92.50;100554.38;5018275;28;20451;-92
2023/04/19 03:19:30;;;;;;;6.43;2.40;;;;;;;14.22;92.55;100554.00;5034341;28;20452;-91
2023/04/19 03:22:27;;;;;;;5.50;1.97;;;;;;;14.22;92.09;100559.50;4994677;28;20448;-91
2023/04/19 03:24:57;;;;;;;7.80;1.87;;;;;;;14.09;92.04;100541.19;5013518;28;21152;-92
2023/04/19 03:27:35;;;;;;;6.47;1.97;;;;;;;14.14;91.85;100563.34;5029738;28;20440;-92
2023/04/19 03:30:29;;;;;;;5.67;2.20;;;;;;;14.13;92.10;100566.31;5017879;28;20498;-92
2023/04/19 03:32:58;;;;;;;6.53;2.20;;;;;;;14.04;92.08;100557.53;5034242;28;20506;-92
2023/04/19 03:35:35;;;;;;;4.70;1.90;;;;;;;14.08;92.20;100569.72;5002504;28;20519;-92
2023/04/19 03:38:27;;;;;;;7.07;2.20;;;;;;;14.08;91.75;100557.91;5033932;28;20443;-92
2023/04/19 03:41:29;;;;;;;7.03;1.57;;;;;;;13.98;92.18;100552.06;5034265;28;20455;-91
2023/04/19 03:43:59;;;;;;;3.20;1.80;;;;;;;14.07;91.62;100561.69;5022476;28;20819;-90
2023/04/19 03:46:41;;;;;;;5.10;1.90;;;;;;;13.97;91.87;100564.09;5017744;28;20886;-91
2023/04/19 03:49:11;;;;;;;4.27;1.90;;;;;;;13.96;92.10;100565.16;5001856;28;20447;-92
2023/04/19 03:51:47;;;;;;;6.47;1.87;;;;;;;13.93;92.17;100571.94;5017376;28;20493;-91
2023/04/19 03:54:19;;;;;;;5.37;2.07;;;;;;;13.94;91.80;100578.28;5001729;28;20463;-92
2023/04/19 03:56:53;;;;;;;2.83;1.30;;;;;;;13.87;92.12;100571.97;5032565;28;20785;-92
2023/04/19 03:59:34;;;;;;;5.40;1.70;;;;;;;13.86;92.26;100564.78;5017956;28;20443;-91
2023/04/19 04:02:03;;;;;;;7.70;1.90;;;;;;;13.83;92.27;100566.09;4998318;28;20464;-91
2023/04/19 04:04:32;;;;;;;6.00;1.73;;;;;;;13.90;92.43;100577.03;4978582;28;20461;-91
2023/04/19 04:07:14;;;;;;;8.07;2.00;;;;;;;13.92;91.91;100575.75;4978315;28;20488;-91
2023/04/19 04:09:54;;;;;;;7.20;2.17;;;;;;;13.87;92.02;100571.97;4997682;28;20460;-92
2023/04/19 04:12:23;;;;;;;4.13;2.10;;;;;;;13.86;91.74;100581.28;4996219;28;20452;-92
2023/04/19 04:14:53;;;;;;;3.67;2.23;;;;;;;13.85;91.32;100574.97;4982342;28;20437;-91
2023/04/19 04:17:30;;;;;;;5.17;1.60;;;;;;;13.82;91.29;100575.41;4997646;28;20455;-91
2023/04/19 04:20:06;;;;;;;4.20;1.60;;;;;;;13.69;91.03;100570.78;5013813;28;20817;-91
2023/04/19 04:22:34;;;;;;;6.17;1.50;;;;;;;13.67;91.72;100575.66;5009571;28;20480;-91
2023/04/19 04:25:03;;;;;;;4.57;1.73;;;;;;;13.64;91.40;100576.13;4994736;28;20824;-92
2023/04/19 04:27:58;;;;;;;6.40;1.97;;;;;;;13.66;91.61;100581.41;4980946;28;20883;-91
2023/04/19 04:30:36;;;;;;;4.20;1.70;;;;;;;13.61;91.53;100576.56;5014257;28;20807;-92
2023/04/19 04:33:07;;;;;;;5.87;1.47;;;;;;;13.50;91.77;100568.97;5014050;28;20949;-92
2023/04/19 04:36:04;;;;;;;4.40;1.90;;;;;;;13.56;91.70;100575.50;4981808;28;20455;-92
2023/04/19 04:38:36;;;;;;;4.30;1.53;;;;;;;13.39;91.66;100561.44;5029588;28;20433;-92
2023/04/19 04:44:26;;;;;;;4.47;1.83;;;;;;;13.47;91.44;100577.66;5014977;28;20523;-92
2023/04/19 04:47:01;;;;;;;11.07;1.50;;;;;;;13.44;91.34;100578.09;4980296;28;21062;-91
2023/04/19 04:49:38;;;;;;;5.37;1.80;;;;;;;13.47;91.30;100585.88;4981850;28;20434;-93
2023/04/19 04:52:35;;;;;;;5.03;2.03;;;;;;;13.44;90.93;100586.34;4984317;28;20444;-92
2023/04/19 04:58:19;;;;;;;3.00;1.30;;;;;;;13.31;90.87;100578.13;4994941;28;20488;-91
2023/04/19 05:00:48;;;;;;;5.83;2.20;;;;;;;13.27;90.84;100576.91;4996613;28;20472;-92
2023/04/19 05:03:25;;;;;;;8.43;1.67;;;;;;;13.29;90.54;100577.50;4997410;28;20455;-91
2023/04/19 05:05:53;;;;;;;7.77;1.60;;;;;;;13.20;90.52;100574.16;4988088;28;20901;-91
2023/04/19 05:08:27;;;;;;;4.33;1.43;;;;;;;13.20;90.78;100578.81;5000863;28;20439;-91
2023/04/19 05:11:16;;;;;;;4.47;1.87;;;;;;;13.20;90.44;100587.03;5000798;28;20461;-91
2023/04/19 05:13:46;;;;;;;11.60;1.70;;;;;;;13.16;90.79;100580.28;5032282;28;20452;-90
2023/04/19 05:16:14;;;;;;;4.83;1.40;;;;;;;13.11;90.59;100576.25;5016896;28;22498;-92
2023/04/19 05:18:59;;;;;;;7.67;1.53;;;;;;;13.12;90.10;100580.69;5003533;28;20439;-92
2023/04/19 05:21:47;;;;;;;3.87;1.43;;;;;;;13.10;90.56;100580.03;5032851;28;20444;-91
2023/04/19 05:24:26;;;;;;;7.83;2.03;;;;;;;13.02;90.24;100574.81;5033231;28;21006;-91
2023/04/19 05:26:55;;;;;;;8.60;1.70;;;;;;;12.94;90.35;100575.00;5000229;28;20569;-92
2023/04/19 05:29:24;;;;;;;2.70;1.23;;;;;;;12.96;90.26;100575.66;4996738;28;20449;-91
2023/04/19 05:31:54;;;;;;;4.43;1.53;;;;;;;12.87;89.99;100576.94;5015469;28;20852;-91
2023/04/19 05:34:28;;;;;;;6.57;1.63;;;;;;;12.89;90.27;100580.31;5016529;28;20941;-92
2023/04/19 05:37:22;;;;;;;3.10;1.50;;;;;;;12.89;90.19;100590.44;4999621;28;20452;-92
2023/04/19 05:40:10;;;;;;;3.60;1.43;;;;;;;12.83;89.96;100588.53;5045458;28;20946;-91
2023/04/19 05:42:50;;;;;;;7.10;1.90;;;;;;;12.80;90.33;100584.31;5009239;28;20447;-92
2023/04/19 05:45:22;;;;;;;6.93;1.23;;;;;;;12.80;90.20;100598.03;5025369;28;20847;-91
2023/04/19 05:47:51;;;;;;;15.73;2.17;;;;;;;12.76;90.48;100603.09;5013243;28;20532;-91
2023/04/19 05:50:21;;;;;;;6.20;1.63;;;;;;;12.75;90.58;100603.31;5032391;28;20438;-91
2023/04/19 05:53:14;;;;;;;4.07;1.70;;;;;;;12.76;90.53;100616.81;5003297;28;20463;-92
2023/04/19 05:55:44;;;;;;;13.70;2.13;;;;;;;12.73;90.32;100613.63;5036288;28;20439;-92
2023/04/19 05:58:11;;;;;;;5.73;1.50;;;;;;;12.70;90.80;100614.91;5004198;28;20451;-91
2023/04/19 06:00:57;;;;;;;7.00;1.97;;;;;;;12.79;91.17;100615.53;5003627;28;20913;-92
2023/04/19 06:03:44;;;;;;;8.60;1.97;;;;;;;12.84;91.47;100614.91;5016658;28;20510;-91
2023/04/19 06:06:13;;;;;;;11.13;2.27;;;;;;;12.86;91.49;100624.63;4996327;28;20475;-91
2023/04/19 06:08:47;;;;;;;4.43;1.83;;;;;;;12.95;91.52;100625.25;5003059;28;20478;-90
2023/04/19 06:11:37;;;;;;;5.43;1.63;;;;;;;13.00;91.71;100625.44;5019465;28;20447;-91
2023/04/19 06:14:17;;;;;;;11.17;2.20;;;;;;;12.98;91.52;100622.06;5036470;28;20501;-90
2023/04/19 06:16:52;;;;;;;5.93;1.50;;;;;;;12.99;91.28;100619.13;5015351;28;20451;-92
2023/04/19 06:19:22;;;;;;;10.43;2.27;;;;;;;13.02;90.60;100635.16;4999996;28;20531;-91
2023/04/19 06:21:59;;;;;;;8.20;1.57;;;;;;;12.99;90.62;100635.59;5005944;28;20526;-91
2023/04/19 06:24:28;;;;;;;9.00;1.93;;;;;;;12.87;90.35;100629.06;5019281;28;20453;-91
2023/04/19 06:27:03;;;;;;;12.60;2.00;;;;;;;12.86;90.46;100635.59;5015629;28;20482;-91
2023/04/19 06:29:36;;;;;;;5.93;1.53;;;;;;;12.78;90.79;100633.06;5016443;28;20522;-91
2023/04/19 06:32:26;;;;;;;5.00;1.87;;;;;;;12.87;90.67;100651.00;5015676;28;20462;-91
2023/04/19 06:34:53;;;;;;;11.63;2.83;;;;;;;12.84;90.80;100642.34;5001910;28;20444;-91
2023/04/19 06:37:21;;;;;;;15.10;2.27;;;;;;;12.85;91.25;100627.59;5016093;28;20433;-91
2023/04/19 06:39:56;;;;;;;5.53;1.80;;;;;;;12.90;91.03;100631.34;5018715;28;20444;-91
2023/04/19 06:42:26;;;;;;;11.37;2.00;;;;;;;12.97;90.70;100637.69;5015460;28;20454;-91
2023/04/19 06:45:07;;;;;;;18.90;3.03;;;;;;;13.07;90.65;100649.09;5014981;28;20448;-91
2023/04/19 06:47:51;;;;;;;19.17;2.70;;;;;;;13.19;90.92;100653.97;5015472;28;20582;-91
2023/04/19 06:50:23;;;;;;;14.80;2.70;;;;;;;13.25;91.01;100644.88;5035459;28;20462;-92
2023/04/19 06:52:54;;;;;;;24.60;3.47;;;;;;;13.28;90.49;100652.66;5034745;28;20435;-92
2023/04/19 06:55:21;;;;;;;9.50;2.70;;;;;;;13.35;91.05;100657.09;5031185;28;20526;-92
2023/04/19 06:57:53;;;;;;;22.47;3.67;;;;;;;13.39;91.31;100649.28;5003717;28;20522;-91
2023/04/19 07:00:26;;;;;;;18.07;3.53;;;;;;;13.45;91.73;100645.69;5002339;28;20452;-92
2023/04/19 07:03:03;;;;;;;184.07;14.27;;;;;;;13.57;91.48;100654.94;5002977;28;20489;-91
2023/04/19 07:05:31;;;;;;;163.63;15.40;;;;;;;13.69;91.84;100658.69;5002573;28;20509;-91
2023/04/19 07:08:07;;;;;;;61.13;6.60;;;;;;;13.75;91.45;100651.50;5018094;28;20486;-91
2023/04/19 07:10:46;;;;;;;56.57;5.20;;;;;;;13.89;91.90;100658.59;5052002;28;20479;-91
2023/04/19 07:13:17;;;;;;;69.57;7.57;;;;;;;13.98;91.33;100667.47;5035474;28;20450;-91
2023/04/19 07:15:56;;;;;;;55.80;5.90;;;;;;;13.98;91.60;100637.25;5034489;28;20447;-92
2023/04/19 07:18:35;;;;;;;68.77;6.80;;;;;;;14.20;92.25;100659.75;5015179;28;20464;-94
2023/04/19 07:21:37;;;;;;;56.77;5.67;;;;;;;14.30;92.56;100666.44;5012542;28;20451;-94
2023/04/19 07:24:06;;;;;;;44.10;3.70;;;;;;;14.29;92.82;100645.50;5051477;28;20451;-91
2023/04/19 07:26:56;;;;;;;20.83;3.03;;;;;;;14.55;93.04;100676.69;5002120;28;20482;-90
2023/04/19 07:29:24;;;;;;;42.73;5.00;;;;;;;14.62;92.92;100663.75;5033983;28;20447;-93
2023/04/19 07:32:00;;;;;;;18.00;3.23;;;;;;;14.73;92.88;100672.13;5002658;28;20452;-92
2023/04/19 07:35:21;;;;;;;21.90;3.17;;;;;;;14.97;93.28;100686.97;5020879;28;20444;-93
2023/04/19 07:37:50;;;;;;;24.97;3.27;;;;;;;15.00;92.98;100678.28;5034555;28;20497;-92
2023/04/19 07:40:19;;;;;;;46.07;3.97;;;;;;;15.19;93.43;100687.44;4998051;28;20508;-92
2023/04/19 07:43:06;;;;;;;23.20;4.50;;;;;;;15.35;93.31;100688.75;4998724;28;20568;-92
2023/04/19 07:45:35;;;;;;;15.67;2.90;;;;;;;15.42;93.30;100681.25;4998176;28;20458;-90
2023/04/19 07:48:27;;;;;;;20.20;3.03;;;;;;;15.64;93.04;100689.97;4998066;28;20491;-90
2023/04/19 07:50:57;;;;;;;18.30;3.60;;;;;;;15.74;92.44;100685.63;4997869;28;20862;-89
2023/04/19 07:53:27;;;;;;;29.27;3.27;;;;;;;15.87;92.28;100696.47;5015823;28;20439;-89
2023/04/19 07:55:56;;;;;;;84.60;7.80;;;;;;;15.95;91.67;100680.72;5029324;28;20463;-89
2023/04/19 07:58:25;;;;;;;42.33;3.47;;;;;;;16.16;91.87;100702.31;5006704;28;20453;-88
2023/04/19 08:00:54;;;;;;;32.73;3.83;;;;;;;16.35;91.35;100703.97;5015074;28;21645;-89
2023/04/19 08:03:23;;;;;;;20.70;4.13;;;;;;;16.50;90.74;100711.81;5027748;28;20451;-89
2023/04/19 08:06:11;;;;;;;41.93;3.97;;;;;;;16.69;90.88;100718.16;5012668;28;20467;-89
2023/04/19 08:08:39;;;;;;;16.13;3.33;;;;;;;16.77;90.53;100712.28;5032125;28;20454;-90
2023/04/19 08:11:07;;;;;;;18.47;2.43;;;;;;;16.87;89.35;100713.41;4999418;28;20515;-90
2023/04/19 08:13:35;;;;;;;13.13;3.10;;;;;;;17.05;89.61;100725.44;5015563;28;20489;-89
2023/04/19 08:16:05;;;;;;;14.20;2.73;;;;;;;17.18;89.13;100722.47;5031628;28;20471;-90
2023/04/19 08:18:36;;;;;;;26.17;3.77;;;;;;;17.31;88.46;100722.25;5043117;28;20437;-89
2023/04/19 08:21:05;;;;;;;27.27;3.53;;;;;;;17.47;87.75;100723.47;5042052;28;20491;-89
2023/04/19 08:23:35;;;;;;;15.53;2.50;;;;;;;17.58;87.03;100715.16;5074263;28;20490;-90
2023/04/19 08:26:15;;;;;;;9.83;2.67;;;;;;;17.71;86.10;100725.16;5060387;28;20470;-89
2023/04/19 08:28:43;;;;;;;22.03;2.20;;;;;;;17.80;85.06;100729.25;5073629;28;20433;-89
2023/04/19 08:31:12;;;;;;;12.60;2.50;;;;;;;17.91;84.79;100735.84;5058218;28;20479;-89
2023/04/19 08:33:40;;;;;;;14.80;2.47;;;;;;;18.05;83.94;100744.75;5074328;28;20445;-90
2023/04/19 08:36:08;;;;;;;9.03;1.80;;;;;;;18.13;83.38;100733.28;5029025;28;20813;-89
2023/04/19 08:38:37;;;;;;;13.07;2.20;;;;;;;18.23;82.53;100728.81;5031168;28;20494;-90
2023/04/19 08:41:05;;;;;;;18.27;3.33;;;;;;;18.30;81.89;100731.44;4999903;28;20431;-89
2023/04/19 08:43:34;;;;;;;32.93;3.70;;;;;;;18.49;81.75;100749.53;5011282;28;20438;-89
2023/04/19 08:46:05;;;;;;;16.03;2.87;;;;;;;18.59;80.98;100743.41;4999290;28;20439;-89
2023/04/19 08:48:34;;;;;;;11.87;2.40;;;;;;;18.73;80.60;100743.94;5015920;28;20859;-90
2023/04/19 09:01:59;;;;;;;7.23;2.17;;;;;;;19.29;77.25;100729.16;5032175;28;20522;-87
2023/04/19 09:04:27;;;;;;;13.20;2.60;;;;;;;19.48;76.57;100751.94;5031702;28;20849;-89
2023/04/19 09:07:03;;;;;;;17.90;3.30;;;;;;;19.58;75.26;100752.13;5001009;28;20540;-87
2023/04/19 09:09:32;;;;;;;12.23;2.37;;;;;;;19.73;74.78;100754.31;5011370;28;20443;-87
2023/04/19 09:15:59;;;;;;;12.10;1.90;;;;;;;19.91;72.52;100748.47;5027365;28;20482;-88
2023/04/19 09:19:02;;;;;;;11.30;1.83;;;;;;;20.02;71.59;100747.50;5012218;28;20456;-87
2023/04/19 21:24:40;;;;;;;19.60;4.20;;;;;;;18.12;99.56;100964.81;5094504;28;20453;-85
2023/04/19 21:27:07;;;;;;;30.13;4.20;;;;;;;18.15;99.62;100966.25;5062941;28;20475;-85
2023/04/19 21:33:23;;;;;;;23.23;4.10;;;;;;;18.14;99.90;100973.72;5097313;28;20399;-85
2023/04/19 21:35:51;;;;;;;23.53;5.10;;;;;;;18.10;100.00;100955.06;5079039;28;20535;-84
2023/04/19 21:38:19;;;;;;;28.33;5.70;;;;;;;18.11;99.69;100965.03;5061963;28;20444;-85
2023/04/19 21:40:48;;;;;;;22.87;4.90;;;;;;;18.09;99.76;100953.41;5046043;28;20444;-85
2023/04/19 21:43:16;;;;;;;33.07;5.60;;;;;;;18.07;100.00;100956.41;5046244;28;20451;-85
2023/04/19 21:45:45;;;;;;;22.80;4.70;;;;;;;18.08;100.00;100954.47;5045757;28;20484;-85
2023/04/19 21:48:13;;;;;;;20.50;4.50;;;;;;;18.08;100.00;100960.00;5078634;28;20484;-85
2023/04/19 21:50:40;;;;;;;22.70;4.40;;;;;;;18.02;100.00;100961.81;5045960;28;20953;-84
2023/04/19 21:53:08;;;;;;;21.27;4.67;;;;;;;17.91;100.00;100946.84;5045447;28;20615;-85
2023/04/19 21:55:37;;;;;;;20.57;4.53;;;;;;;17.99;100.00;100964.19;5045900;28;20444;-86
2023/04/19 21:58:05;;;;;;;23.70;5.67;;;;;;;18.02;100.00;100974.78;5079489;28;20437;-85
2023/04/19 22:00:34;;;;;;;21.70;5.73;;;;;;;17.91;100.00;100957.91;5061945;28;20467;-85
2023/04/19 22:03:04;;;;;;;20.33;5.90;;;;;;;18.02;100.00;100985.84;5062085;28;20543;-86
2023/04/19 22:05:32;;;;;;;22.67;4.77;;;;;;;17.95;100.00;100978.50;5094893;28;20444;-85
2023/04/19 22:08:06;;;;;;;23.63;5.20;;;;;;;17.98;100.00;100990.16;5077720;28;20583;-85
2023/04/19 22:10:33;;;;;;;22.00;4.63;;;;;;;17.92;100.00;101001.09;5063478;28;20828;-86
2023/04/19 22:13:02;;;;;;;25.33;4.70;;;;;;;17.92;100.00;100991.94;5062433;28;20497;-85
2023/04/19 22:15:30;;;;;;;29.27;5.23;;;;;;;17.93;100.00;100996.41;5044743;28;20429;-85
2023/04/19 22:18:01;;;;;;;24.10;4.67;;;;;;;17.91;100.00;101010.47;5044466;28;20871;-85
2023/04/19 22:20:30;;;;;;;29.13;5.10;;;;;;;17.93;100.00;101007.47;5070413;28;20443;-85
2023/04/19 22:22:58;;;;;;;22.23;4.90;;;;;;;17.83;100.00;100996.13;5042184;28;20456;-85
2023/04/19 22:25:27;;;;;;;28.73;7.23;;;;;;;17.80;100.00;100989.16;5048727;28;20542;-90
2023/04/19 22:27:57;;;;;;;26.23;4.73;;;;;;;17.84;100.00;101006.13;5027208;28;20481;-89
2023/04/19 22:30:25;;;;;;;29.00;6.40;;;;;;;17.81;100.00;100999.13;5061271;28;20445;-88
2023/04/19 22:32:53;;;;;;;18.37;4.97;;;;;;;17.80;100.00;101000.22;5061104;28;20891;-88
2023/04/19 22:35:21;;;;;;;24.87;4.60;;;;;;;17.76;100.00;101001.75;5045339;28;20490;-87
2023/04/19 22:37:49;;;;;;;25.77;5.30;;;;;;;17.76;100.00;101004.53;5045135;28;20942;-87
2023/04/19 22:40:16;;;;;;;19.87;4.87;;;;;;;17.76;100.00;101001.75;5043872;28;20440;-87
2023/04/19 22:42:44;;;;;;;27.57;6.00;;;;;;;17.73;100.00;100999.47;5077783;28;20464;-88
2023/04/19 22:45:12;;;;;;;20.67;4.80;;;;;;;17.73;100.00;101009.66;5061051;28;20948;-87
2023/04/19 22:47:41;;;;;;;24.23;5.33;;;;;;;17.72;100.00;101025.41;5061137;28;20475;-87
2023/04/19 22:50:10;;;;;;;23.27;5.37;;;;;;;17.69;100.00;101014.84;5095387;28;20934;-87
2023/04/19 22:52:40;;;;;;;25.77;5.57;;;;;;;17.71;100.00;101028.41;5045182;28;20930;-87
2023/04/19 22:55:09;;;;;;;25.43;4.70;;;;;;;17.69;100.00;101025.91;5043907;28;20440;-87
2023/04/19 22:57:37;;;;;;;21.53;4.67;;;;;;;17.65;100.00;101021.91;5061406;28;21015;-87
2023/04/19 23:00:06;;;;;;;30.77;4.70;;;;;;;17.65;100.00;101035.75;5061032;28;21008;-88
2023/04/19 23:02:34;;;;;;;23.87;5.80;;;;;;;17.63;100.00;101032.34;5045634;28;20421;-87
2023/04/19 23:05:03;;;;;;;25.97;4.70;;;;;;;17.58;100.00;101026.66;5044477;28;20443;-87
2023/04/19 23:07:32;;;;;;;23.77;5.63;;;;;;;17.61;100.00;101031.72;5061295;28;20836;-86
2023/04/19 23:09:59;;;;;;;27.63;5.07;;;;;;;17.62;100.00;101030.63;5060749;28;20445;-87
2023/04/19 23:12:29;;;;;;;27.37;5.80;;;;;;;17.58;100.00;101029.41;5044300;28;20476;-87
2023/04/19 23:14:58;;;;;;;20.80;4.50;;;;;;;17.65;100.00;101035.75;5077332;28;20445;-87
2023/04/19 23:17:27;;;;;;;26.90;5.70;;;;;;;17.64;100.00;101039.59;5077187;28;20449;-87
2023/04/19 23:19:56;;;;;;;18.47;4.87;;;;;;;17.65;100.00;101041.28;5060821;28;20437;-87
2023/04/19 23:22:24;;;;;;;27.53;5.70;;;;;;;17.59;100.00;101043.00;5076729;28;20441;-87
2023/04/19 23:24:54;;;;;;;19.20;4.93;;;;;;;17.58;100.00;101046.00;5043869;28;20885;-86
2023/04/19 23:27:22;;;;;;;19.57;4.80;;;;;;;17.59;100.00;101040.25;5066143;28;20444;-87
2023/04/19 23:29:50;;;;;;;20.03;5.33;;;;;;;17.58;100.00;101040.47;5060103;28;20953;-87
2023/04/19 23:32:18;;;;;;;19.17;5.87;;;;;;;17.57;100.00;101038.78;5058970;28;20432;-87
2023/04/19 23:34:46;;;;;;;21.13;5.10;;;;;;;17.54;100.00;101034.56;5062428;28;20420;-87
2023/04/19 23:37:15;;;;;;;24.50;5.07;;;;;;;17.51;100.00;101028.69;5044624;28;20813;-87
2023/04/19 23:39:43;;;;;;;22.10;4.13;;;;;;;17.48;100.00;101027.22;5060586;28;20447;-88
2023/04/19 23:42:11;;;;;;;24.27;5.00;;;;;;;17.50;100.00;101032.50;5044096;28;20456;-87
2023/04/19 23:44:39;;;;;;;27.17;5.00;;;;;;;17.36;100.00;101008.88;5039664;28;20492;-87
2023/04/19 23:47:10;;;;;;;17.23;4.30;;;;;;;17.48;100.00;101031.91;5041398;28;20441;-87
2023/04/19 23:49:38;;;;;;;26.53;4.80;;;;;;;17.42;100.00;101013.47;5026409;28;20520;-87
2023/04/19 23:52:05;;;;;;;26.27;5.37;;;;;;;17.39;100.00;101009.25;5043542;28;20528;-87
2023/04/19 23:54:33;;;;;;;22.87;5.43;;;;;;;17.40;100.00;101010.09;5047690;28;20455;-88
2023/04/19 23:57:01;;;;;;;26.83;5.00;;;;;;;17.36;100.00;101014.41;5080581;28;20442;-88
2023/04/19 23:59:32;;;;;;;21.37;4.23;;;;;;;17.31;100.00;101003.22;5051040;28;20504;-88
